Time;durP1;ratioP1;P1;durP2;ratioP2;P2;SDS_P1;SDS_P2;PMS_P1;PMS_P2;Temp;Humidity;BMP_temperature;BMP_pressure;BME280_temperature;BME280_humidity;BME280_pressure;Samples;Min_cycle;Max_cycle;Signal;HPM_P1;HPM_P2
2021/06/07 00:02:03;;;;;;;50.13;34.90;;;18.20;98.30;;;;;;4052094;29;20467;-83
2021/06/07 00:04:06;;;;;;;48.03;34.73;;;18.10;98.30;;;;;;4050275;29;20468;-83
2021/06/07 00:06:10;;;;;;;53.90;36.40;;;18.20;98.30;;;;;;4053565;29;20483;-83
2021/06/07 00:08:13;;;;;;;47.17;34.73;;;18.20;98.30;;;;;;4052657;29;20494;-83
2021/06/07 00:10:18;;;;;;;49.93;36.17;;;18.20;98.30;;;;;;4056205;29;20516;-83
2021/06/07 00:12:20;;;;;;;50.30;37.77;;;18.10;98.30;;;;;;4057051;29;20550;-83
2021/06/07 00:14:27;;;;;;;49.50;36.53;;;18.20;98.30;;;;;;4056138;29;20541;-83
2021/06/07 00:16:30;;;;;;;53.80;39.20;;;18.20;98.30;;;;;;4064526;29;20467;-83
2021/06/07 00:18:34;;;;;;;53.77;37.70;;;18.20;98.30;;;;;;4058626;29;20510;-84
2021/06/07 00:20:39;;;;;;;63.27;38.70;;;18.10;98.30;;;;;;4063529;29;20984;-83
2021/06/07 00:22:43;;;;;;;57.30;38.73;;;18.00;98.30;;;;;;4064999;29;20995;-83
2021/06/07 00:24:45;;;;;;;70.30;41.03;;;17.90;98.30;;;;;;4057191;29;21297;-83
2021/06/07 00:26:48;;;;;;;59.47;39.20;;;17.90;98.30;;;;;;4051930;29;20513;-83
2021/06/07 00:28:51;;;;;;;71.63;40.40;;;17.80;98.30;;;;;;4058048;29;20526;-83
2021/06/07 00:30:54;;;;;;;61.30;40.40;;;17.70;98.30;;;;;;4061545;29;20467;-83
2021/06/07 00:32:57;;;;;;;65.97;43.30;;;17.60;98.30;;;;;;4049188;29;20486;-83
2021/06/07 00:34:59;;;;;;;65.93;41.30;;;17.60;98.30;;;;;;4036483;29;20487;-83
2021/06/07 00:37:02;;;;;;;63.37;41.90;;;17.50;98.30;;;;;;4058057;29;20499;-83
2021/06/07 00:39:09;;;;;;;61.73;41.90;;;17.50;98.30;;;;;;4048623;29;20556;-83
2021/06/07 00:41:13;;;;;;;59.37;41.77;;;17.60;98.30;;;;;;4058231;29;20887;-83
2021/06/07 00:43:15;;;;;;;59.97;40.30;;;17.60;98.30;;;;;;4039764;29;20471;-83
2021/06/07 00:45:23;;;;;;;63.10;41.30;;;17.60;98.30;;;;;;4056983;29;20942;-83
2021/06/07 00:47:27;;;;;;;62.00;40.60;;;17.60;98.30;;;;;;4055629;29;20463;-83
2021/06/07 00:49:29;;;;;;;65.67;41.77;;;17.50;98.30;;;;;;4056075;29;20493;-83
2021/06/07 00:51:32;;;;;;;67.13;40.50;;;17.50;98.30;;;;;;4059379;29;20475;-83
2021/06/07 00:53:35;;;;;;;61.03;40.53;;;17.60;98.30;;;;;;4061025;29;20546;-83
2021/06/07 00:55:42;;;;;;;65.37;38.90;;;17.60;98.30;;;;;;4063023;29;20593;-83
2021/06/07 00:57:45;;;;;;;58.77;38.93;;;17.50;98.30;;;;;;4058409;29;20979;-83
2021/06/07 00:59:48;;;;;;;63.87;41.93;;;17.50;98.30;;;;;;4056869;29;20488;-83
2021/06/07 01:01:50;;;;;;;62.57;40.50;;;17.50;98.30;;;;;;4051890;29;20606;-83
2021/06/07 01:03:56;;;;;;;64.40;40.93;;;17.60;98.30;;;;;;4064792;29;20506;-84
2021/06/07 01:05:58;;;;;;;57.77;39.40;;;17.80;98.30;;;;;;4058981;29;20475;-83
2021/06/07 01:08:03;;;;;;;66.50;41.13;;;17.80;98.30;;;;;;4050773;29;20520;-83
2021/06/07 01:10:11;;;;;;;57.67;39.57;;;17.90;98.30;;;;;;4064789;29;20496;-83
2021/06/07 01:12:15;;;;;;;69.40;41.10;;;17.70;98.30;;;;;;4056780;29;20565;-83
2021/06/07 01:14:17;;;;;;;62.50;41.13;;;17.70;98.30;;;;;;4061880;29;21163;-84
2021/06/07 01:16:21;;;;;;;59.03;37.97;;;17.80;98.30;;;;;;4055545;29;20559;-83
2021/06/07 01:18:26;;;;;;;65.93;41.10;;;17.80;98.30;;;;;;4056994;29;20507;-83
2021/06/07 01:20:28;;;;;;;60.70;39.90;;;17.80;98.30;;;;;;4050914;29;20844;-84
2021/06/07 01:22:33;;;;;;;73.90;42.10;;;17.80;98.30;;;;;;4055772;29;20523;-84
2021/06/07 01:24:36;;;;;;;67.63;44.27;;;17.80;98.30;;;;;;4044709;29;20851;-83
2021/06/07 01:26:38;;;;;;;58.30;39.13;;;17.90;98.30;;;;;;4059181;29;20506;-83
2021/06/07 01:28:42;;;;;;;60.10;39.87;;;17.90;98.30;;;;;;4045353;29;20495;-84
2021/06/07 01:30:48;;;;;;;58.87;41.97;;;17.90;98.30;;;;;;4058545;29;20465;-84
2021/06/07 01:32:51;;;;;;;58.37;38.97;;;17.90;98.30;;;;;;4045879;29;20559;-83
2021/06/07 01:34:53;;;;;;;68.20;41.40;;;17.80;98.30;;;;;;4050327;29;20490;-83
2021/06/07 01:36:56;;;;;;;69.83;44.20;;;17.80;98.30;;;;;;4053603;29;20570;-83
2021/06/07 01:39:00;;;;;;;61.63;41.00;;;17.60;98.30;;;;;;4063832;29;20546;-83
2021/06/07 01:41:05;;;;;;;75.83;43.57;;;17.60;98.30;;;;;;4054679;29;20969;-83
2021/06/07 01:43:08;;;;;;;64.50;42.30;;;17.50;98.30;;;;;;4052980;29;20906;-83
2021/06/07 01:45:14;;;;;;;64.27;41.67;;;17.40;98.30;;;;;;4063154;29;20467;-84
2021/06/07 01:47:17;;;;;;;55.77;41.00;;;17.50;98.30;;;;;;4055187;29;20476;-83
2021/06/07 01:49:21;;;;;;;61.40;42.20;;;17.60;98.30;;;;;;4056860;29;20522;-83
2021/06/07 01:51:24;;;;;;;66.03;41.93;;;17.80;98.30;;;;;;4066001;29;20562;-83
2021/06/07 01:53:27;;;;;;;67.43;43.07;;;17.70;98.30;;;;;;4068990;29;20937;-83
2021/06/07 01:55:34;;;;;;;65.27;42.33;;;17.50;98.30;;;;;;4068313;29;20495;-83
2021/06/07 01:57:36;;;;;;;73.60;44.00;;;17.50;98.30;;;;;;4065031;29;20467;-83
2021/06/07 01:59:39;;;;;;;70.23;44.43;;;17.30;98.30;;;;;;4067073;29;20485;-83
2021/06/07 02:01:42;;;;;;;71.83;43.57;;;17.30;98.30;;;;;;4052327;29;20483;-84
2021/06/07 02:03:45;;;;;;;74.70;44.33;;;17.20;98.30;;;;;;4047949;29;20856;-83
2021/06/07 02:05:51;;;;;;;70.70;43.30;;;17.30;98.30;;;;;;4052832;29;20512;-83
2021/06/07 02:07:56;;;;;;;68.30;42.80;;;17.40;98.30;;;;;;4050954;29;20580;-83
2021/06/07 02:09:58;;;;;;;67.20;42.27;;;17.50;98.30;;;;;;4055063;29;20478;-84
2021/06/07 02:12:02;;;;;;;68.70;44.07;;;17.50;98.30;;;;;;4058438;29;20562;-84
2021/06/07 02:14:06;;;;;;;70.20;43.30;;;17.50;98.30;;;;;;4045879;29;20496;-83
2021/06/07 02:16:17;;;;;;;68.80;43.97;;;17.30;98.30;;;;;;4048569;29;20585;-83
2021/06/07 02:18:20;;;;;;;70.30;42.90;;;17.10;98.30;;;;;;4037612;29;21082;-84
2021/06/07 02:20:23;;;;;;;78.60;44.43;;;17.10;98.30;;;;;;4053656;29;20476;-83
2021/06/07 02:22:26;;;;;;;79.00;46.20;;;17.00;98.30;;;;;;4051082;29;21032;-83
2021/06/07 02:24:28;;;;;;;75.97;45.17;;;16.90;98.30;;;;;;4062221;29;20511;-83
2021/06/07 02:26:32;;;;;;;85.77;45.67;;;16.90;98.30;;;;;;4052362;29;20469;-84
2021/06/07 02:28:36;;;;;;;91.40;47.40;;;16.90;98.30;;;;;;4059716;29;20526;-83
2021/06/07 02:30:39;;;;;;;77.43;44.83;;;16.80;98.30;;;;;;4064236;29;20557;-84
2021/06/07 02:32:42;;;;;;;84.63;47.83;;;16.80;98.30;;;;;;4064378;29;20973;-83
2021/06/07 02:34:45;;;;;;;78.97;45.27;;;16.90;98.30;;;;;;4059900;29;20519;-83
2021/06/07 02:36:47;;;;;;;77.47;43.50;;;16.90;98.30;;;;;;4055147;29;20564;-83
2021/06/07 02:38:50;;;;;;;77.70;45.70;;;16.90;98.30;;;;;;4057189;29;20499;-84
2021/06/07 02:40:53;;;;;;;82.43;46.40;;;17.00;98.30;;;;;;4062737;29;20840;-83
2021/06/07 02:42:57;;;;;;;86.17;45.60;;;16.90;98.30;;;;;;4047247;29;20476;-84
2021/06/07 02:45:01;;;;;;;92.53;46.10;;;16.90;98.30;;;;;;4057032;29;20987;-84
2021/06/07 02:47:05;;;;;;;91.37;47.80;;;16.90;98.30;;;;;;4043947;29;20544;-83
2021/06/07 02:49:07;;;;;;;87.13;46.13;;;17.10;98.30;;;;;;4056838;29;20530;-83
2021/06/07 02:51:10;;;;;;;75.80;43.97;;;17.00;98.30;;;;;;4045289;29;21124;-83
2021/06/07 02:53:14;;;;;;;97.37;46.57;;;17.00;98.30;;;;;;4052540;29;20551;-84
2021/06/07 02:55:22;;;;;;;80.30;46.20;;;17.00;98.30;;;;;;4065835;29;20479;-85
2021/06/07 02:57:24;;;;;;;86.00;47.63;;;16.90;98.30;;;;;;4068554;29;20535;-85
2021/06/07 02:59:27;;;;;;;73.00;45.53;;;17.00;98.30;;;;;;4061561;29;20498;-84
2021/06/07 03:01:31;;;;;;;70.43;44.13;;;17.10;98.30;;;;;;4058341;29;21250;-84
2021/06/07 03:03:33;;;;;;;73.70;41.10;;;17.10;98.30;;;;;;4070614;29;20474;-84
2021/06/07 03:05:38;;;;;;;71.77;45.63;;;17.10;98.30;;;;;;4069344;29;20799;-84
2021/06/07 03:07:40;;;;;;;76.30;44.67;;;17.20;98.30;;;;;;4052644;29;20507;-85
2021/06/07 03:09:43;;;;;;;74.77;43.37;;;17.20;98.30;;;;;;4063932;29;21076;-84
2021/06/07 03:11:46;;;;;;;70.80;42.53;;;17.10;98.30;;;;;;4063190;29;20483;-83
2021/06/07 03:13:54;;;;;;;82.00;42.87;;;17.00;98.30;;;;;;4068421;29;20489;-84
2021/06/07 03:15:59;;;;;;;76.77;45.10;;;16.90;98.30;;;;;;4052400;29;20490;-84
2021/06/07 03:18:03;;;;;;;77.23;46.00;;;17.00;98.30;;;;;;4057940;29;20509;-84
2021/06/07 03:20:09;;;;;;;69.40;42.37;;;17.00;98.30;;;;;;4059952;29;21348;-84
2021/06/07 03:22:12;;;;;;;67.93;42.80;;;17.10;98.30;;;;;;4056577;29;20558;-84
2021/06/07 03:24:16;;;;;;;83.27;46.97;;;17.20;98.30;;;;;;4046961;29;20476;-85
2021/06/07 03:26:19;;;;;;;80.23;44.80;;;17.20;98.30;;;;;;4052766;29;20572;-85
2021/06/07 03:28:23;;;;;;;79.77;45.50;;;17.30;98.30;;;;;;4050790;29;20583;-84
2021/06/07 03:30:27;;;;;;;78.17;42.07;;;17.30;98.30;;;;;;4050818;29;20473;-85
2021/06/07 03:32:29;;;;;;;75.97;46.77;;;17.30;98.30;;;;;;4037412;29;20469;-85
2021/06/07 03:34:34;;;;;;;72.43;44.00;;;17.20;98.30;;;;;;4056490;29;21255;-85
2021/06/07 03:36:36;;;;;;;83.70;46.30;;;17.20;98.30;;;;;;4046538;29;20492;-85
2021/06/07 03:38:39;;;;;;;87.23;45.67;;;17.10;98.30;;;;;;4061363;29;20518;-84
2021/06/07 03:40:44;;;;;;;82.57;44.90;;;17.00;98.30;;;;;;4066944;29;20568;-84
2021/06/07 03:42:47;;;;;;;76.63;45.40;;;17.00;98.30;;;;;;4062383;29;20821;-84
2021/06/07 03:44:49;;;;;;;80.50;47.00;;;17.00;98.30;;;;;;4069790;29;20504;-85
2021/06/07 03:46:52;;;;;;;76.23;42.87;;;17.00;98.30;;;;;;4067465;29;20466;-84
2021/06/07 03:48:54;;;;;;;79.77;47.97;;;17.00;98.30;;;;;;4067278;29;20495;-84
2021/06/07 03:51:00;;;;;;;82.67;45.80;;;16.90;98.30;;;;;;4060446;29;20554;-85
2021/06/07 03:53:03;;;;;;;85.70;47.60;;;16.90;98.30;;;;;;4068338;29;20477;-84
2021/06/07 03:55:09;;;;;;;81.47;45.17;;;16.90;98.30;;;;;;4069069;29;20573;-84
2021/06/07 03:57:12;;;;;;;78.03;45.23;;;16.80;98.30;;;;;;4062622;29;20855;-85
2021/06/07 03:59:14;;;;;;;81.57;45.20;;;16.80;98.30;;;;;;4065769;29;20569;-84
2021/06/07 04:01:17;;;;;;;88.93;48.30;;;16.80;98.30;;;;;;4064338;29;20477;-84
2021/06/07 04:03:20;;;;;;;88.90;47.67;;;16.80;98.30;;;;;;4064890;29;20510;-85
2021/06/07 04:05:23;;;;;;;108.40;58.70;;;16.90;98.30;;;;;;4065553;29;20467;-84
2021/06/07 04:07:27;;;;;;;85.67;49.93;;;17.00;98.30;;;;;;4064931;29;20471;-84
2021/06/07 04:09:29;;;;;;;92.23;54.80;;;17.10;98.30;;;;;;4064192;29;20586;-84
2021/06/07 04:11:32;;;;;;;73.27;43.83;;;17.10;98.30;;;;;;4063311;29;20498;-83
2021/06/07 04:13:34;;;;;;;72.10;44.43;;;17.10;98.30;;;;;;4061229;29;20543;-85
2021/06/07 04:15:37;;;;;;;72.80;43.63;;;17.00;98.30;;;;;;4057947;29;20499;-84
2021/06/07 04:17:40;;;;;;;68.50;40.63;;;17.10;98.30;;;;;;4059737;29;21023;-84
2021/06/07 04:19:43;;;;;;;70.37;44.50;;;17.10;98.30;;;;;;4065233;29;20960;-84
2021/06/07 04:21:46;;;;;;;72.43;43.47;;;17.10;98.30;;;;;;4067156;29;20973;-84
2021/06/07 04:23:50;;;;;;;71.53;42.67;;;17.10;98.30;;;;;;4062053;29;20468;-84
2021/06/07 04:25:55;;;;;;;74.40;41.70;;;17.10;98.30;;;;;;4052567;29;20467;-84
2021/06/07 04:27:59;;;;;;;77.50;44.20;;;17.10;98.30;;;;;;4066953;29;20491;-85
2021/06/07 04:30:05;;;;;;;82.93;44.13;;;17.10;98.30;;;;;;4058704;29;20477;-84
2021/06/07 04:32:08;;;;;;;84.87;43.67;;;17.20;98.30;;;;;;4061327;29;20502;-84
2021/06/07 04:34:11;;;;;;;72.43;43.67;;;17.00;98.30;;;;;;4061696;29;20900;-84
2021/06/07 04:36:13;;;;;;;77.27;44.30;;;17.00;98.30;;;;;;4067206;29;20591;-84
2021/06/07 04:38:16;;;;;;;75.50;43.17;;;17.00;98.30;;;;;;4061425;29;20506;-84
2021/06/07 04:40:21;;;;;;;107.03;57.73;;;17.10;98.30;;;;;;4062497;29;20509;-84
2021/06/07 04:42:24;;;;;;;87.43;51.40;;;17.10;98.30;;;;;;4063865;29;20558;-84
2021/06/07 04:44:27;;;;;;;91.70;51.80;;;17.20;98.30;;;;;;4066982;29;20475;-85
2021/06/07 04:46:29;;;;;;;96.10;48.40;;;17.20;98.30;;;;;;4059905;29;20967;-85
2021/06/07 04:48:32;;;;;;;96.70;48.50;;;17.30;98.30;;;;;;4057334;29;20638;-85
2021/06/07 04:50:36;;;;;;;96.33;50.67;;;17.20;98.30;;;;;;4059260;29;20473;-84
2021/06/07 04:52:56;;;;;;;102.97;51.43;;;17.10;98.30;;;;;;4058432;29;21383;-85
2021/06/07 04:55:04;;;;;;;87.83;43.33;;;17.20;98.30;;;;;;4056408;29;20472;-84
2021/06/07 04:57:08;;;;;;;110.10;59.73;;;17.30;98.30;;;;;;4046449;29;20483;-85
2021/06/07 04:59:10;;;;;;;116.50;57.10;;;17.30;98.30;;;;;;4050378;29;20492;-85
2021/06/07 05:01:14;;;;;;;99.67;52.77;;;17.30;98.30;;;;;;4060845;29;20554;-85
2021/06/07 05:03:18;;;;;;;81.30;44.20;;;17.30;98.30;;;;;;4065257;29;20566;-85
2021/06/07 05:05:21;;;;;;;82.83;42.30;;;17.30;98.30;;;;;;4057853;29;20484;-84
2021/06/07 05:07:23;;;;;;;82.83;44.37;;;17.20;98.30;;;;;;4056669;29;20503;-85
2021/06/07 05:09:26;;;;;;;76.60;43.37;;;17.20;98.30;;;;;;4060761;29;21034;-84
2021/06/07 05:11:29;;;;;;;81.73;47.33;;;17.10;98.30;;;;;;4059296;29;20542;-84
2021/06/07 05:13:33;;;;;;;77.03;42.33;;;17.10;98.30;;;;;;4064607;29;20471;-85
2021/06/07 05:15:36;;;;;;;78.03;42.67;;;17.10;98.30;;;;;;4065491;29;20579;-84
2021/06/07 05:17:39;;;;;;;67.53;42.57;;;17.20;98.30;;;;;;4058604;29;20606;-84
2021/06/07 05:19:41;;;;;;;71.33;42.37;;;17.20;98.30;;;;;;4063791;29;20475;-86
2021/06/07 05:21:44;;;;;;;83.63;44.57;;;17.20;98.30;;;;;;4060393;29;20479;-84
2021/06/07 05:23:46;;;;;;;88.67;44.23;;;17.20;98.30;;;;;;4061452;29;21036;-84
2021/06/07 05:25:49;;;;;;;77.17;43.50;;;17.20;98.30;;;;;;4061623;29;20606;-84
2021/06/07 05:27:53;;;;;;;79.13;46.20;;;17.10;98.30;;;;;;4066173;29;20497;-85
2021/06/07 05:30:00;;;;;;;75.23;41.47;;;17.20;98.30;;;;;;4057663;29;20475;-85
2021/06/07 05:32:03;;;;;;;75.70;45.57;;;17.10;98.30;;;;;;4060286;29;21039;-85
2021/06/07 05:34:05;;;;;;;82.53;45.60;;;17.10;98.30;;;;;;4072572;29;20463;-85
2021/06/07 05:36:08;;;;;;;77.00;41.70;;;17.10;98.30;;;;;;4072835;29;20493;-86
2021/06/07 05:38:12;;;;;;;72.17;40.33;;;17.20;98.30;;;;;;4077325;29;20525;-85
2021/06/07 05:40:17;;;;;;;63.27;40.73;;;17.30;98.30;;;;;;4072815;29;20456;-84
2021/06/07 05:42:21;;;;;;;69.53;38.73;;;17.40;98.30;;;;;;4074798;29;20482;-84
2021/06/07 05:44:24;;;;;;;60.77;40.57;;;17.40;98.30;;;;;;4073719;29;20503;-84
2021/06/07 05:46:28;;;;;;;62.60;41.23;;;17.40;98.30;;;;;;4070260;29;20478;-85
2021/06/07 05:48:31;;;;;;;66.70;39.50;;;17.40;98.30;;;;;;4066989;29;20542;-87
2021/06/07 05:50:36;;;;;;;65.77;40.83;;;17.40;98.30;;;;;;4061625;29;20490;-87
2021/06/07 05:52:45;;;;;;;69.87;43.90;;;17.50;98.30;;;;;;4065854;29;20471;-87
2021/06/07 05:57:47;;;;;;;74.07;40.27;;;17.30;98.30;;;;;;4062590;29;20953;-85
2021/06/07 05:59:49;;;;;;;75.47;42.40;;;17.20;98.30;;;;;;4068200;29;20470;-85
2021/06/07 06:01:53;;;;;;;67.20;42.00;;;17.20;98.30;;;;;;4064575;29;20528;-84
2021/06/07 06:03:56;;;;;;;70.73;41.43;;;17.20;98.30;;;;;;4059675;29;20473;-85
2021/06/07 06:06:08;;;;;;;70.73;40.53;;;17.10;98.30;;;;;;4068556;29;20471;-83
2021/06/07 06:08:20;;;;;;;65.23;41.30;;;17.20;98.30;;;;;;4061639;29;20593;-84
2021/06/07 06:10:54;;;;;;;65.27;40.53;;;17.20;98.30;;;;;;4027241;29;21102;-84
2021/06/07 06:13:20;;;;;;;69.50;41.47;;;17.30;98.30;;;;;;4055129;29;21475;-83
2021/06/07 06:15:25;;;;;;;67.83;43.30;;;17.30;98.30;;;;;;4062427;29;20494;-82
2021/06/07 06:17:29;;;;;;;76.13;44.70;;;17.30;98.30;;;;;;4054439;29;21130;-82
2021/06/07 06:19:32;;;;;;;74.10;43.97;;;17.30;98.30;;;;;;4059028;29;20479;-82
2021/06/07 06:21:37;;;;;;;65.70;41.83;;;17.30;98.30;;;;;;4061238;29;20471;-82
2021/06/07 06:23:40;;;;;;;65.50;42.40;;;17.30;98.30;;;;;;4049162;29;20556;-83
2021/06/07 06:25:42;;;;;;;75.37;42.80;;;17.40;98.30;;;;;;4064887;29;20550;-82
2021/06/07 06:27:46;;;;;;;66.47;42.07;;;17.40;98.30;;;;;;4066786;29;20990;-83
2021/06/07 06:29:49;;;;;;;63.00;41.13;;;17.50;98.30;;;;;;4066786;29;20475;-82
2021/06/07 06:31:51;;;;;;;62.77;41.20;;;17.50;98.30;;;;;;4056821;29;20491;-82
2021/06/07 06:33:55;;;;;;;66.40;42.50;;;17.60;98.30;;;;;;4066520;29;20562;-82
2021/06/07 06:35:58;;;;;;;66.53;43.10;;;17.80;98.30;;;;;;4066291;29;20578;-83
2021/06/07 06:38:00;;;;;;;63.47;40.70;;;17.90;98.30;;;;;;4066773;29;20491;-83
2021/06/07 06:40:04;;;;;;;60.67;40.20;;;17.90;98.30;;;;;;4066775;29;20474;-82
2021/06/07 06:42:08;;;;;;;59.73;39.73;;;18.00;98.30;;;;;;4067015;29;20965;-83
2021/06/07 06:44:10;;;;;;;66.93;41.67;;;17.90;98.30;;;;;;4066630;29;20900;-83
2021/06/07 06:46:13;;;;;;;63.40;42.57;;;17.90;98.30;;;;;;4067809;29;20688;-83
2021/06/07 06:48:16;;;;;;;58.73;40.03;;;17.90;98.30;;;;;;4067932;29;20514;-83
2021/06/07 06:50:20;;;;;;;59.37;39.57;;;18.00;98.30;;;;;;4067860;29;21181;-83
2021/06/07 06:52:22;;;;;;;76.53;44.40;;;18.10;98.30;;;;;;4065705;29;20471;-83
2021/06/07 06:54:25;;;;;;;61.90;41.60;;;18.00;98.30;;;;;;4067668;29;20482;-82
2021/06/07 06:56:27;;;;;;;72.27;47.73;;;17.90;98.30;;;;;;4054489;29;20521;-83
2021/06/07 06:58:30;;;;;;;76.23;48.23;;;18.00;98.30;;;;;;4066734;29;20519;-83
2021/06/07 07:00:36;;;;;;;83.50;57.60;;;18.10;98.30;;;;;;4067707;29;20497;-83
2021/06/07 07:02:39;;;;;;;72.10;47.27;;;18.10;98.30;;;;;;4067895;29;20901;-82
2021/06/07 07:04:41;;;;;;;63.53;41.10;;;18.30;98.30;;;;;;4063052;29;20570;-83
2021/06/07 07:06:45;;;;;;;66.90;41.20;;;18.30;98.30;;;;;;4067426;29;20539;-82
2021/06/07 07:08:47;;;;;;;54.37;40.40;;;18.30;98.30;;;;;;4067550;29;20834;-83
2021/06/07 07:10:50;;;;;;;60.10;39.70;;;18.40;98.30;;;;;;4040486;29;20465;-82
2021/06/07 07:12:53;;;;;;;57.00;38.23;;;18.30;98.30;;;;;;4068316;29;20550;-83
2021/06/07 07:14:56;;;;;;;58.80;40.43;;;18.20;98.30;;;;;;4059939;29;20566;-84
2021/06/07 07:16:58;;;;;;;65.07;41.57;;;18.20;98.30;;;;;;4055751;29;20494;-85
2021/06/07 07:19:01;;;;;;;63.20;40.93;;;18.20;98.30;;;;;;4066945;29;20959;-85
2021/06/07 07:21:04;;;;;;;55.83;39.57;;;18.20;98.30;;;;;;4048342;29;20475;-85
2021/06/07 07:23:08;;;;;;;61.43;40.00;;;18.20;98.30;;;;;;4058478;29;20506;-86
2021/06/07 07:25:12;;;;;;;57.63;40.60;;;18.20;98.30;;;;;;4062283;29;20544;-85
2021/06/07 07:27:16;;;;;;;53.00;38.30;;;18.30;98.30;;;;;;4064292;29;20478;-85
2021/06/07 07:29:19;;;;;;;57.37;39.30;;;18.30;98.30;;;;;;4067081;29;20568;-85
2021/06/07 07:31:22;;;;;;;60.77;40.03;;;18.30;98.30;;;;;;4064698;29;20566;-85
2021/06/07 07:33:24;;;;;;;55.13;40.50;;;18.30;98.30;;;;;;4066535;29;20859;-85
2021/06/07 07:35:27;;;;;;;63.97;43.17;;;18.30;98.30;;;;;;4066889;29;20477;-85
2021/06/07 07:37:30;;;;;;;64.00;42.33;;;18.20;98.30;;;;;;4065482;29;20495;-83
2021/06/07 07:39:34;;;;;;;55.00;41.77;;;18.30;98.30;;;;;;4067246;29;20483;-83
2021/06/07 07:41:37;;;;;;;62.93;40.90;;;18.10;98.30;;;;;;4051387;29;20595;-83
2021/06/07 07:43:39;;;;;;;61.83;41.07;;;18.20;98.30;;;;;;4066747;29;21012;-82
2021/06/07 07:45:42;;;;;;;58.47;41.73;;;18.20;98.30;;;;;;4063822;29;20942;-82
2021/06/07 07:47:44;;;;;;;67.33;46.47;;;18.20;98.30;;;;;;4057577;29;20511;-82
2021/06/07 07:49:48;;;;;;;60.23;40.93;;;18.20;98.30;;;;;;4055841;29;20464;-83
2021/06/07 07:51:51;;;;;;;61.47;40.30;;;18.20;98.30;;;;;;4063080;29;20497;-83
2021/06/07 07:53:54;;;;;;;58.57;43.43;;;18.20;98.30;;;;;;4051418;29;20479;-83
2021/06/07 07:55:58;;;;;;;55.50;40.03;;;18.30;98.30;;;;;;4067142;29;21044;-82
2021/06/07 07:58:04;;;;;;;54.90;39.50;;;18.50;98.30;;;;;;4042809;29;20552;-83
2021/06/07 08:00:08;;;;;;;58.27;40.43;;;18.50;98.30;;;;;;4066243;29;20471;-83
2021/06/07 08:02:11;;;;;;;56.53;38.63;;;18.50;98.30;;;;;;4066671;29;20478;-83
2021/06/07 08:04:14;;;;;;;56.93;39.90;;;18.50;98.30;;;;;;4066661;29;21348;-83
2021/06/07 08:06:16;;;;;;;55.13;39.53;;;18.50;98.30;;;;;;4066639;29;20467;-82
2021/06/07 08:08:19;;;;;;;52.80;38.47;;;18.70;98.30;;;;;;4054608;29;20590;-83
2021/06/07 08:10:22;;;;;;;51.87;38.40;;;18.90;98.30;;;;;;4042351;29;20472;-83
2021/06/07 08:12:25;;;;;;;49.60;40.40;;;19.10;98.30;;;;;;4066671;29;21434;-83
2021/06/07 08:14:29;;;;;;;50.13;38.93;;;19.30;98.30;;;;;;4058892;29;20543;-83
2021/06/07 08:16:32;;;;;;;52.37;39.60;;;19.30;98.30;;;;;;4066820;29;20842;-82
2021/06/07 08:18:34;;;;;;;47.63;36.47;;;19.40;98.30;;;;;;4049796;29;20510;-83
2021/06/07 08:20:37;;;;;;;55.43;40.67;;;19.50;98.30;;;;;;4064265;29;20907;-83
2021/06/07 08:22:39;;;;;;;61.07;46.83;;;19.60;98.30;;;;;;4066193;29;20502;-83
2021/06/07 08:24:42;;;;;;;58.93;46.17;;;19.60;98.30;;;;;;4065720;29;20983;-83
2021/06/07 08:26:45;;;;;;;89.00;60.17;;;19.60;98.30;;;;;;4066817;29;20475;-83
2021/06/07 08:28:48;;;;;;;53.47;40.77;;;19.50;98.30;;;;;;4064020;29;20863;-82
2021/06/07 08:30:51;;;;;;;61.10;46.97;;;19.50;98.30;;;;;;4066214;29;20567;-83
2021/06/07 08:32:53;;;;;;;58.87;43.60;;;19.50;98.30;;;;;;4066530;29;20498;-83
2021/06/07 08:34:56;;;;;;;58.37;46.27;;;19.40;98.30;;;;;;4064827;29;20481;-83
2021/06/07 08:36:59;;;;;;;62.23;46.87;;;19.40;98.30;;;;;;4066173;29;20510;-83
2021/06/07 08:39:02;;;;;;;61.10;45.97;;;19.40;98.30;;;;;;4066484;29;20494;-83
2021/06/07 08:41:04;;;;;;;58.50;43.23;;;19.50;98.30;;;;;;4063245;29;21026;-83
2021/06/07 08:43:08;;;;;;;60.90;45.67;;;19.60;98.30;;;;;;4064666;29;20867;-83
2021/06/07 08:45:15;;;;;;;54.43;42.77;;;19.60;98.30;;;;;;4066149;29;20507;-83
2021/06/07 08:47:18;;;;;;;51.30;40.57;;;19.60;98.30;;;;;;4066455;29;20464;-83
2021/06/07 08:49:21;;;;;;;50.60;38.80;;;19.70;98.30;;;;;;4063465;29;20570;-83
2021/06/07 08:51:24;;;;;;;50.80;39.10;;;19.80;98.30;;;;;;4066355;29;20514;-82
2021/06/07 08:53:27;;;;;;;66.40;47.73;;;19.70;98.30;;;;;;4066220;29;20478;-83
2021/06/07 08:55:31;;;;;;;56.07;42.57;;;19.50;98.30;;;;;;4067701;29;20490;-83
2021/06/07 08:57:39;;;;;;;60.40;45.87;;;19.30;98.30;;;;;;4062627;29;20551;-84
2021/06/07 08:59:41;;;;;;;56.40;42.47;;;19.30;98.30;;;;;;4065146;29;20567;-83
2021/06/07 09:01:46;;;;;;;48.77;38.23;;;19.50;98.30;;;;;;4066180;29;20974;-84
2021/06/07 09:03:49;;;;;;;50.17;42.20;;;19.70;98.30;;;;;;4068413;29;20483;-83
2021/06/07 09:05:54;;;;;;;50.30;41.60;;;19.90;98.30;;;;;;4065662;29;20836;-83
2021/06/07 09:08:00;;;;;;;51.37;38.63;;;20.10;98.30;;;;;;4066069;29;20578;-82
2021/06/07 09:10:07;;;;;;;49.63;39.67;;;20.20;98.30;;;;;;4066113;29;20482;-84
2021/06/07 09:12:21;;;;;;;48.83;39.77;;;20.30;98.30;;;;;;4066014;29;20849;-83
2021/06/07 09:14:32;;;;;;;57.13;42.17;;;20.20;98.30;;;;;;4065591;29;20474;-82
2021/06/07 09:16:39;;;;;;;52.47;39.80;;;20.00;98.30;;;;;;4063250;29;20502;-83
2021/06/07 09:18:46;;;;;;;44.73;39.50;;;19.90;98.30;;;;;;4059869;29;20581;-82
2021/06/07 09:20:49;;;;;;;55.37;40.30;;;19.90;98.30;;;;;;4062077;29;20562;-83
2021/06/07 09:22:53;;;;;;;50.63;40.63;;;19.90;98.30;;;;;;4068696;29;21329;-82
2021/06/07 09:25:04;;;;;;;50.30;39.70;;;19.80;98.30;;;;;;4069021;29;20489;-83
2021/06/07 09:27:08;;;;;;;47.80;41.03;;;19.70;98.30;;;;;;4064211;29;20538;-83
2021/06/07 09:29:31;;;;;;;49.20;39.20;;;19.70;98.30;;;;;;4068659;29;21033;-83
2021/06/07 09:31:38;;;;;;;51.00;38.93;;;19.70;98.30;;;;;;4065821;29;20466;-82
2021/06/07 09:33:45;;;;;;;64.87;50.57;;;19.70;98.30;;;;;;4065400;29;20549;-83
2021/06/07 09:36:18;;;;;;;62.67;50.97;;;19.80;98.30;;;;;;4068537;29;20462;-84
2021/06/07 09:38:21;;;;;;;91.67;65.57;;;19.90;98.30;;;;;;4066920;29;20913;-84
2021/06/07 09:40:24;;;;;;;61.20;46.60;;;20.00;98.30;;;;;;4057559;29;20499;-83
2021/06/07 09:42:28;;;;;;;50.27;39.67;;;20.10;98.30;;;;;;4068845;29;20841;-83
2021/06/07 09:44:34;;;;;;;49.20;39.40;;;20.10;98.30;;;;;;4054975;29;20522;-83
2021/06/07 09:46:37;;;;;;;45.47;36.53;;;20.10;98.30;;;;;;4071771;29;20639;-83
2021/06/07 09:48:39;;;;;;;46.67;37.20;;;20.00;98.30;;;;;;4073147;29;20495;-83
2021/06/07 09:50:57;;;;;;;48.07;38.80;;;20.00;98.30;;;;;;4071572;29;20502;-83
2021/06/07 09:53:06;;;;;;;52.57;39.50;;;19.90;98.30;;;;;;4069173;29;20522;-83
2021/06/07 09:55:14;;;;;;;45.63;36.93;;;19.80;98.30;;;;;;4069452;29;20490;-83
2021/06/07 09:57:19;;;;;;;49.37;38.13;;;19.70;98.30;;;;;;4069002;29;20459;-83
2021/06/07 09:59:27;;;;;;;48.83;39.07;;;19.70;98.30;;;;;;4066778;29;20494;-83
2021/06/07 10:01:31;;;;;;;48.53;40.47;;;19.90;98.30;;;;;;4062450;29;21043;-83
2021/06/07 10:03:42;;;;;;;49.50;38.33;;;20.10;98.30;;;;;;4057240;29;20475;-83
2021/06/07 10:05:45;;;;;;;47.63;38.17;;;20.20;98.30;;;;;;4068359;29;20924;-83
2021/06/07 10:07:54;;;;;;;46.30;38.27;;;20.20;98.30;;;;;;4068550;29;20470;-83
2021/06/07 10:10:12;;;;;;;44.13;36.77;;;20.30;98.30;;;;;;4068115;29;20471;-83
2021/06/07 10:12:24;;;;;;;41.20;33.80;;;20.40;98.30;;;;;;4058389;29;20901;-83
2021/06/07 10:14:29;;;;;;;43.63;35.90;;;20.40;98.30;;;;;;4071284;29;20550;-83
2021/06/07 10:16:32;;;;;;;45.60;37.33;;;20.30;98.30;;;;;;4070134;29;20479;-83
2021/06/07 10:18:34;;;;;;;44.10;35.80;;;20.30;98.30;;;;;;4068819;29;20507;-83
2021/06/07 10:20:47;;;;;;;44.27;38.10;;;20.30;98.30;;;;;;4069379;29;20898;-83
2021/06/07 10:22:50;;;;;;;43.33;34.40;;;20.30;98.30;;;;;;4062925;29;20482;-83
2021/06/07 10:24:54;;;;;;;39.50;32.67;;;20.30;98.30;;;;;;4073370;29;20471;-82
2021/06/07 10:26:57;;;;;;;43.30;35.10;;;20.60;98.30;;;;;;4069366;29;21244;-83
2021/06/07 10:28:59;;;;;;;41.60;33.17;;;20.90;98.30;;;;;;4062234;29;20499;-83
2021/06/07 10:31:10;;;;;;;40.90;34.17;;;21.00;98.30;;;;;;4064484;29;20477;-83
2021/06/07 10:33:31;;;;;;;36.83;32.10;;;21.10;98.30;;;;;;4067451;29;20541;-83